Shaw, Minnesota
Current Conditions -  °F | °C
As of 1:55 PM on Friday 28 Nov 2014 (Local Time) from KDLH Reporting Station
Light Snow Light Snow  
Wind Chill:   Ceiling: 1200
Heat Index: 14°   Visibility: 4mi
Dew Point:   Wind: 8mph
Humidity: 80%   Direction: 140°SE
Pressure: 29.87"   Gusts: NA
Location:  47.068°N, 92.4547°W
Report Text: KDLH 281955Z 14007KT 4SM -SN BKN012 OVC040 M10/M13 A2987 RMK AO2 SLP150 P0000 T11001128
Loading
Personal Weather Stations






























Interactive Weather Map New forecast layout! Learn more

10-Day Weather Forecast

Advertisements
Track Severe Weather on mobile